sensor_id;sensor_type;location;lat;lon;timestamp;P1;durP1;ratioP1;P2;durP2;ratioP2
22515;SDS011;11424;48.860;9.624;2022-07-05T00:01:22;7.1;;;13.1;;
22515;SDS011;11424;48.860;9.624;2022-07-05T00:06:22;7.7;;;14.3;;
22515;SDS011;11424;48.860;9.624;2022-07-05T00:11:22;7.3;;;12.1;;
22515;SDS011;11424;48.860;9.624;2022-07-05T00:16:22;7.7;;;13;;
22515;SDS011;11424;48.860;9.624;2022-07-05T00:21:22;6;;;10.7;;
22515;SDS011;11424;48.860;9.624;2022-07-05T00:26:22;6.6;;;13.2;;
22515;SDS011;11424;48.860;9.624;2022-07-05T00:31:22;5.3;;;9.2;;
22515;SDS011;11424;48.860;9.624;2022-07-05T00:36:22;7.5;;;13.4;;
22515;SDS011;11424;48.860;9.624;2022-07-05T00:41:22;6.6;;;15;;
22515;SDS011;11424;48.860;9.624;2022-07-05T00:46:22;7.9;;;14.8;;
22515;SDS011;11424;48.860;9.624;2022-07-05T00:51:22;8.5;;;16.2;;
22515;SDS011;11424;48.860;9.624;2022-07-05T00:56:22;6.9;;;17.1;;
22515;SDS011;11424;48.860;9.624;2022-07-05T01:01:22;7.7;;;13.9;;
22515;SDS011;11424;48.860;9.624;2022-07-05T01:06:22;5.2;;;9.3;;
22515;SDS011;11424;48.860;9.624;2022-07-05T01:11:22;9.6;;;18.1;;
22515;SDS011;11424;48.860;9.624;2022-07-05T01:16:22;6.5;;;12.1;;
22515;SDS011;11424;48.860;9.624;2022-07-05T01:21:22;7.3;;;13.2;;
22515;SDS011;11424;48.860;9.624;2022-07-05T01:26:22;7.2;;;13.8;;
22515;SDS011;11424;48.860;9.624;2022-07-05T01:31:22;7.4;;;14.4;;
22515;SDS011;11424;48.860;9.624;2022-07-05T01:36:22;6.7;;;11.7;;
22515;SDS011;11424;48.860;9.624;2022-07-05T01:41:22;7.9;;;12.8;;
22515;SDS011;11424;48.860;9.624;2022-07-05T01:46:22;5.9;;;10.4;;
22515;SDS011;11424;48.860;9.624;2022-07-05T01:51:24;5.3;;;8.6;;
22515;SDS011;11424;48.860;9.624;2022-07-05T01:56:22;4.8;;;7.9;;
22515;SDS011;11424;48.860;9.624;2022-07-05T02:01:37;4.1;;;6.5;;
22515;SDS011;11424;48.860;9.624;2022-07-05T02:06:22;3.4;;;4.8;;
22515;SDS011;11424;48.860;9.624;2022-07-05T02:11:22;3.9;;;6.2;;
22515;SDS011;11424;48.860;9.624;2022-07-05T02:16:22;4.6;;;8.8;;
22515;SDS011;11424;48.860;9.624;2022-07-05T02:21:22;4.6;;;8.1;;
22515;SDS011;11424;48.860;9.624;2022-07-05T02:26:22;4.1;;;9.4;;
22515;SDS011;11424;48.860;9.624;2022-07-05T02:31:22;4.2;;;7.9;;
22515;SDS011;11424;48.860;9.624;2022-07-05T02:36:22;4.4;;;8.8;;
22515;SDS011;11424;48.860;9.624;2022-07-05T02:41:22;4.2;;;8;;
22515;SDS011;11424;48.860;9.624;2022-07-05T02:46:22;3.3;;;5.5;;
22515;SDS011;11424;48.860;9.624;2022-07-05T02:51:22;4.5;;;9.6;;
22515;SDS011;11424;48.860;9.624;2022-07-05T02:56:22;4.2;;;9.4;;
22515;SDS011;11424;48.860;9.624;2022-07-05T03:01:22;6.2;;;11.8;;
22515;SDS011;11424;48.860;9.624;2022-07-05T03:06:22;13.2;;;16.6;;
22515;SDS011;11424;48.860;9.624;2022-07-05T03:11:22;10.4;;;15.4;;
22515;SDS011;11424;48.860;9.624;2022-07-05T03:16:22;13;;;17.5;;
22515;SDS011;11424;48.860;9.624;2022-07-05T03:21:22;6.6;;;12.7;;
22515;SDS011;11424;48.860;9.624;2022-07-05T03:26:22;4.4;;;9.6;;
22515;SDS011;11424;48.860;9.624;2022-07-05T03:31:22;9.7;;;16;;
22515;SDS011;11424;48.860;9.624;2022-07-05T03:36:22;6;;;11.5;;
22515;SDS011;11424;48.860;9.624;2022-07-05T03:41:22;6.8;;;13.5;;
22515;SDS011;11424;48.860;9.624;2022-07-05T03:46:22;7.1;;;12.3;;
22515;SDS011;11424;48.860;9.624;2022-07-05T03:51:23;8.4;;;14.8;;
22515;SDS011;11424;48.860;9.624;2022-07-05T03:56:22;6.1;;;11.4;;
22515;SDS011;11424;48.860;9.624;2022-07-05T04:01:22;6.4;;;12.7;;
22515;SDS011;11424;48.860;9.624;2022-07-05T04:06:22;8.1;;;14.4;;
22515;SDS011;11424;48.860;9.624;2022-07-05T04:11:22;7.5;;;13.5;;
22515;SDS011;11424;48.860;9.624;2022-07-05T04:16:22;11;;;17.6;;
22515;SDS011;11424;48.860;9.624;2022-07-05T04:21:22;9;;;15;;
22515;SDS011;11424;48.860;9.624;2022-07-05T04:26:22;8.8;;;14.4;;
22515;SDS011;11424;48.860;9.624;2022-07-05T04:31:22;15.4;;;21.6;;
22515;SDS011;11424;48.860;9.624;2022-07-05T04:36:22;17.1;;;22.6;;
22515;SDS011;11424;48.860;9.624;2022-07-05T04:41:22;18.5;;;21.7;;
22515;SDS011;11424;48.860;9.624;2022-07-05T04:46:22;42.9;;;58.6;;
22515;SDS011;11424;48.860;9.624;2022-07-05T04:51:22;29.7;;;32.9;;
22515;SDS011;11424;48.860;9.624;2022-07-05T04:56:22;22.9;;;25.1;;
22515;SDS011;11424;48.860;9.624;2022-07-05T05:01:22;23;;;25.3;;
22515;SDS011;11424;48.860;9.624;2022-07-05T05:06:22;25.3;;;27.6;;
22515;SDS011;11424;48.860;9.624;2022-07-05T05:11:22;20.5;;;22.5;;
22515;SDS011;11424;48.860;9.624;2022-07-05T05:16:22;22.8;;;25;;
22515;SDS011;11424;48.860;9.624;2022-07-05T05:21:22;24.5;;;26.8;;
22515;SDS011;11424;48.860;9.624;2022-07-05T05:26:22;29.7;;;32.6;;
22515;SDS011;11424;48.860;9.624;2022-07-05T05:31:22;27.5;;;30.2;;
22515;SDS011;11424;48.860;9.624;2022-07-05T05:36:22;20.9;;;22.8;;
22515;SDS011;11424;48.860;9.624;2022-07-05T05:41:22;17.4;;;19.2;;
22515;SDS011;11424;48.860;9.624;2022-07-05T05:46:22;16.5;;;18.3;;
22515;SDS011;11424;48.860;9.624;2022-07-05T05:51:22;24.1;;;26.2;;
22515;SDS011;11424;48.860;9.624;2022-07-05T05:56:22;19.9;;;22;;
22515;SDS011;11424;48.860;9.624;2022-07-05T06:01:22;27.9;;;30.7;;
22515;SDS011;11424;48.860;9.624;2022-07-05T06:06:22;30.7;;;33.7;;
22515;SDS011;11424;48.860;9.624;2022-07-05T06:11:22;22.5;;;24.6;;
22515;SDS011;11424;48.860;9.624;2022-07-05T06:16:22;31;;;33.9;;
22515;SDS011;11424;48.860;9.624;2022-07-05T06:21:22;19;;;20.8;;
22515;SDS011;11424;48.860;9.624;2022-07-05T06:26:22;21.5;;;23.7;;
22515;SDS011;11424;48.860;9.624;2022-07-05T06:31:22;25.3;;;27.8;;
22515;SDS011;11424;48.860;9.624;2022-07-05T06:36:22;23;;;25.3;;
22515;SDS011;11424;48.860;9.624;2022-07-05T06:41:22;25;;;27.3;;
22515;SDS011;11424;48.860;9.624;2022-07-05T06:46:22;3.3;;;4.6;;
22515;SDS011;11424;48.860;9.624;2022-07-05T06:51:22;3.5;;;5.2;;
22515;SDS011;11424;48.860;9.624;2022-07-05T06:56:22;3;;;3.3;;
22515;SDS011;11424;48.860;9.624;2022-07-05T07:01:22;5;;;8.8;;
22515;SDS011;11424;48.860;9.624;2022-07-05T07:06:22;4.5;;;6;;
22515;SDS011;11424;48.860;9.624;2022-07-05T07:11:22;3.5;;;3.8;;
22515;SDS011;11424;48.860;9.624;2022-07-05T07:16:23;3.5;;;4.3;;
22515;SDS011;11424;48.860;9.624;2022-07-05T07:21:22;3.1;;;3.4;;
22515;SDS011;11424;48.860;9.624;2022-07-05T07:26:22;3;;;3.3;;
22515;SDS011;11424;48.860;9.624;2022-07-05T07:31:22;3.5;;;3.9;;
22515;SDS011;11424;48.860;9.624;2022-07-05T07:36:22;3.2;;;3.5;;
22515;SDS011;11424;48.860;9.624;2022-07-05T07:41:22;2.9;;;4.9;;
22515;SDS011;11424;48.860;9.624;2022-07-05T07:46:22;3.3;;;4.3;;
22515;SDS011;11424;48.860;9.624;2022-07-05T07:51:22;3;;;3.3;;
22515;SDS011;11424;48.860;9.624;2022-07-05T07:56:22;3;;;3.3;;
22515;SDS011;11424;48.860;9.624;2022-07-05T08:01:22;2.9;;;3.3;;
22515;SDS011;11424;48.860;9.624;2022-07-05T08:06:22;2.6;;;2.8;;
22515;SDS011;11424;48.860;9.624;2022-07-05T08:11:22;3;;;3.3;;
22515;SDS011;11424;48.860;9.624;2022-07-05T08:16:22;2.4;;;2.8;;
22515;SDS011;11424;48.860;9.624;2022-07-05T08:21:22;2.5;;;2.7;;
22515;SDS011;11424;48.860;9.624;2022-07-05T08:26:22;2.7;;;3.9;;
22515;SDS011;11424;48.860;9.624;2022-07-05T08:31:22;2.6;;;2.9;;
22515;SDS011;11424;48.860;9.624;2022-07-05T08:36:22;2.9;;;3.6;;
22515;SDS011;11424;48.860;9.624;2022-07-05T08:41:22;2.7;;;3.9;;
22515;SDS011;11424;48.860;9.624;2022-07-05T08:46:22;2.4;;;2.6;;
22515;SDS011;11424;48.860;9.624;2022-07-05T08:51:22;2.9;;;3.4;;
22515;SDS011;11424;48.860;9.624;2022-07-05T08:56:22;2.6;;;2.8;;
22515;SDS011;11424;48.860;9.624;2022-07-05T09:01:22;2.4;;;2.6;;
22515;SDS011;11424;48.860;9.624;2022-07-05T09:06:23;2.7;;;3.4;;
22515;SDS011;11424;48.860;9.624;2022-07-05T09:11:23;2.7;;;3;;
22515;SDS011;11424;48.860;9.624;2022-07-05T09:16:22;2.6;;;3;;
22515;SDS011;11424;48.860;9.624;2022-07-05T09:21:23;2.1;;;2.3;;
22515;SDS011;11424;48.860;9.624;2022-07-05T09:26:26;2.8;;;4.1;;
22515;SDS011;11424;48.860;9.624;2022-07-05T09:31:26;2.5;;;3.1;;
22515;SDS011;11424;48.860;9.624;2022-07-05T09:36:22;3.2;;;4.4;;
22515;SDS011;11424;48.860;9.624;2022-07-05T09:41:22;2.7;;;3;;
22515;SDS011;11424;48.860;9.624;2022-07-05T09:46:28;2.4;;;4.4;;
22515;SDS011;11424;48.860;9.624;2022-07-05T09:51:22;3.2;;;4.7;;
22515;SDS011;11424;48.860;9.624;2022-07-05T09:56:23;2.9;;;3.3;;
22515;SDS011;11424;48.860;9.624;2022-07-05T10:01:23;2.8;;;3.1;;
22515;SDS011;11424;48.860;9.624;2022-07-05T10:06:23;3;;;3.3;;
22515;SDS011;11424;48.860;9.624;2022-07-05T10:11:23;3;;;4.8;;
22515;SDS011;11424;48.860;9.624;2022-07-05T10:16:22;5.4;;;7.5;;
22515;SDS011;11424;48.860;9.624;2022-07-05T10:21:23;3;;;4.4;;
22515;SDS011;11424;48.860;9.624;2022-07-05T10:26:23;3.9;;;6.1;;
22515;SDS011;11424;48.860;9.624;2022-07-05T10:31:22;3.2;;;4.3;;
22515;SDS011;11424;48.860;9.624;2022-07-05T10:36:22;3.1;;;4.1;;
22515;SDS011;11424;48.860;9.624;2022-07-05T10:41:23;3.8;;;7.1;;
22515;SDS011;11424;48.860;9.624;2022-07-05T10:46:32;2.6;;;2.9;;
22515;SDS011;11424;48.860;9.624;2022-07-05T10:51:22;3.3;;;4.5;;
22515;SDS011;11424;48.860;9.624;2022-07-05T10:56:22;2.8;;;3.4;;
22515;SDS011;11424;48.860;9.624;2022-07-05T11:01:30;3;;;4.1;;
22515;SDS011;11424;48.860;9.624;2022-07-05T11:06:23;2.7;;;3.2;;
22515;SDS011;11424;48.860;9.624;2022-07-05T11:11:23;2.9;;;3.2;;
22515;SDS011;11424;48.860;9.624;2022-07-05T11:16:23;3;;;4.3;;
22515;SDS011;11424;48.860;9.624;2022-07-05T11:21:22;2.3;;;3.7;;
22515;SDS011;11424;48.860;9.624;2022-07-05T11:26:22;3.5;;;4.9;;
22515;SDS011;11424;48.860;9.624;2022-07-05T11:31:39;3.5;;;5.7;;
22515;SDS011;11424;48.860;9.624;2022-07-05T11:36:23;2.5;;;3.4;;
22515;SDS011;11424;48.860;9.624;2022-07-05T11:41:22;3.2;;;4.4;;
22515;SDS011;11424;48.860;9.624;2022-07-05T11:46:22;2.5;;;2.9;;
22515;SDS011;11424;48.860;9.624;2022-07-05T11:51:22;3.2;;;5.3;;
22515;SDS011;11424;48.860;9.624;2022-07-05T11:56:22;2.5;;;2.9;;
22515;SDS011;11424;48.860;9.624;2022-07-05T12:01:22;2.4;;;2.7;;
22515;SDS011;11424;48.860;9.624;2022-07-05T12:06:22;3.2;;;4.3;;
22515;SDS011;11424;48.860;9.624;2022-07-05T12:11:22;2.8;;;4.2;;
22515;SDS011;11424;48.860;9.624;2022-07-05T12:16:23;3.5;;;4.8;;
22515;SDS011;11424;48.860;9.624;2022-07-05T12:21:23;4.1;;;6.3;;
22515;SDS011;11424;48.860;9.624;2022-07-05T12:26:22;4.2;;;6.5;;
22515;SDS011;11424;48.860;9.624;2022-07-05T12:31:23;3.8;;;5.2;;
22515;SDS011;11424;48.860;9.624;2022-07-05T12:36:22;3.6;;;5;;
22515;SDS011;11424;48.860;9.624;2022-07-05T12:41:22;3.3;;;4.6;;
22515;SDS011;11424;48.860;9.624;2022-07-05T12:46:34;3.4;;;4.9;;
22515;SDS011;11424;48.860;9.624;2022-07-05T12:51:39;3.8;;;6.3;;
22515;SDS011;11424;48.860;9.624;2022-07-05T12:56:23;3.6;;;5.1;;
22515;SDS011;11424;48.860;9.624;2022-07-05T13:01:23;3.8;;;5.9;;
22515;SDS011;11424;48.860;9.624;2022-07-05T13:06:23;4.1;;;5.7;;
22515;SDS011;11424;48.860;9.624;2022-07-05T13:11:30;3.5;;;4.8;;
22515;SDS011;11424;48.860;9.624;2022-07-05T13:16:22;2.9;;;4;;
22515;SDS011;11424;48.860;9.624;2022-07-05T13:21:23;3;;;4.2;;
22515;SDS011;11424;48.860;9.624;2022-07-05T13:26:23;3.5;;;5.1;;
22515;SDS011;11424;48.860;9.624;2022-07-05T13:31:23;2.9;;;3.7;;
22515;SDS011;11424;48.860;9.624;2022-07-05T13:36:23;2.4;;;2.8;;
22515;SDS011;11424;48.860;9.624;2022-07-05T13:41:23;3.4;;;4.9;;
22515;SDS011;11424;48.860;9.624;2022-07-05T13:46:23;3;;;3.7;;
22515;SDS011;11424;48.860;9.624;2022-07-05T13:51:23;2.8;;;4;;
22515;SDS011;11424;48.860;9.624;2022-07-05T13:56:23;2.8;;;3.6;;
22515;SDS011;11424;48.860;9.624;2022-07-05T14:01:23;2.7;;;3.3;;
22515;SDS011;11424;48.860;9.624;2022-07-05T14:06:23;3;;;4.8;;
22515;SDS011;11424;48.860;9.624;2022-07-05T14:11:23;2.3;;;2.5;;
22515;SDS011;11424;48.860;9.624;2022-07-05T14:16:23;1.9;;;2;;
22515;SDS011;11424;48.860;9.624;2022-07-05T14:21:23;3.3;;;7.1;;
22515;SDS011;11424;48.860;9.624;2022-07-05T14:26:23;2.9;;;3.9;;
22515;SDS011;11424;48.860;9.624;2022-07-05T14:31:23;3.2;;;4;;
22515;SDS011;11424;48.860;9.624;2022-07-05T14:36:23;4.2;;;6.1;;
22515;SDS011;11424;48.860;9.624;2022-07-05T14:41:23;3.6;;;5.8;;
22515;SDS011;11424;48.860;9.624;2022-07-05T14:46:23;2.6;;;3;;
22515;SDS011;11424;48.860;9.624;2022-07-05T14:51:23;3.1;;;4.2;;
22515;SDS011;11424;48.860;9.624;2022-07-05T14:56:23;3.1;;;4.7;;
22515;SDS011;11424;48.860;9.624;2022-07-05T15:01:23;4.7;;;6;;
22515;SDS011;11424;48.860;9.624;2022-07-05T15:06:23;5.1;;;7.1;;
22515;SDS011;11424;48.860;9.624;2022-07-05T15:11:23;4.5;;;6.6;;
22515;SDS011;11424;48.860;9.624;2022-07-05T15:16:23;13.8;;;25.4;;
22515;SDS011;11424;48.860;9.624;2022-07-05T15:21:23;6.9;;;9.9;;
22515;SDS011;11424;48.860;9.624;2022-07-05T15:26:23;7.1;;;9.4;;
22515;SDS011;11424;48.860;9.624;2022-07-05T15:31:23;7;;;9.5;;
22515;SDS011;11424;48.860;9.624;2022-07-05T15:36:23;7.4;;;9.3;;
22515;SDS011;11424;48.860;9.624;2022-07-05T15:41:23;4.1;;;6.7;;
22515;SDS011;11424;48.860;9.624;2022-07-05T15:46:23;7.7;;;11.9;;
22515;SDS011;11424;48.860;9.624;2022-07-05T15:51:23;4.8;;;7.9;;
22515;SDS011;11424;48.860;9.624;2022-07-05T15:56:23;7.7;;;12.8;;
22515;SDS011;11424;48.860;9.624;2022-07-05T16:01:23;6.3;;;8.5;;
22515;SDS011;11424;48.860;9.624;2022-07-05T16:06:23;7;;;11.2;;
22515;SDS011;11424;48.860;9.624;2022-07-05T16:11:23;5.8;;;7.8;;
22515;SDS011;11424;48.860;9.624;2022-07-05T16:16:23;7.1;;;9.7;;
22515;SDS011;11424;48.860;9.624;2022-07-05T16:21:23;6.4;;;8.2;;
22515;SDS011;11424;48.860;9.624;2022-07-05T16:26:24;7;;;10;;
22515;SDS011;11424;48.860;9.624;2022-07-05T16:31:23;3.8;;;4.7;;
22515;SDS011;11424;48.860;9.624;2022-07-05T16:36:23;6.1;;;9.4;;
22515;SDS011;11424;48.860;9.624;2022-07-05T16:41:23;6.7;;;9.5;;
22515;SDS011;11424;48.860;9.624;2022-07-05T16:46:23;6.7;;;8.7;;
22515;SDS011;11424;48.860;9.624;2022-07-05T16:51:23;6.5;;;8.3;;
22515;SDS011;11424;48.860;9.624;2022-07-05T16:56:23;6.9;;;8.7;;
22515;SDS011;11424;48.860;9.624;2022-07-05T17:01:23;6.3;;;8.2;;
22515;SDS011;11424;48.860;9.624;2022-07-05T17:06:23;6;;;7.8;;
22515;SDS011;11424;48.860;9.624;2022-07-05T17:11:23;3.4;;;4.2;;
22515;SDS011;11424;48.860;9.624;2022-07-05T17:16:24;6.7;;;9;;
22515;SDS011;11424;48.860;9.624;2022-07-05T17:21:23;5.3;;;6.1;;
22515;SDS011;11424;48.860;9.624;2022-07-05T17:26:24;5.9;;;8.1;;
22515;SDS011;11424;48.860;9.624;2022-07-05T17:31:24;6.2;;;7.9;;
22515;SDS011;11424;48.860;9.624;2022-07-05T17:36:23;6;;;8.1;;
22515;SDS011;11424;48.860;9.624;2022-07-05T17:41:23;4.6;;;7;;
22515;SDS011;11424;48.860;9.624;2022-07-05T17:46:23;7.2;;;10.3;;
22515;SDS011;11424;48.860;9.624;2022-07-05T17:51:23;6.9;;;9.1;;
22515;SDS011;11424;48.860;9.624;2022-07-05T17:56:23;7.2;;;10.2;;
22515;SDS011;11424;48.860;9.624;2022-07-05T18:01:23;7.8;;;11;;
22515;SDS011;11424;48.860;9.624;2022-07-05T18:06:23;7.1;;;9.4;;
22515;SDS011;11424;48.860;9.624;2022-07-05T18:11:23;8;;;10.7;;
22515;SDS011;11424;48.860;9.624;2022-07-05T18:21:27;10.1;;;19.8;;
22515;SDS011;11424;48.860;9.624;2022-07-05T18:26:23;5.7;;;10;;
22515;SDS011;11424;48.860;9.624;2022-07-05T18:31:23;5.2;;;9.8;;
22515;SDS011;11424;48.860;9.624;2022-07-05T18:36:23;6.8;;;11.4;;
22515;SDS011;11424;48.860;9.624;2022-07-05T18:41:23;6.1;;;11.1;;
22515;SDS011;11424;48.860;9.624;2022-07-05T18:46:23;6.7;;;8.4;;
22515;SDS011;11424;48.860;9.624;2022-07-05T18:51:23;7.5;;;10.9;;
22515;SDS011;11424;48.860;9.624;2022-07-05T18:56:23;7.1;;;10;;
22515;SDS011;11424;48.860;9.624;2022-07-05T19:01:23;7.4;;;11.1;;
22515;SDS011;11424;48.860;9.624;2022-07-05T19:06:24;4.7;;;5.9;;
22515;SDS011;11424;48.860;9.624;2022-07-05T19:11:23;3.9;;;4.3;;
22515;SDS011;11424;48.860;9.624;2022-07-05T19:16:23;6.1;;;9;;
22515;SDS011;11424;48.860;9.624;2022-07-05T19:21:23;5.3;;;7;;
22515;SDS011;11424;48.860;9.624;2022-07-05T19:26:23;5.1;;;6.2;;
22515;SDS011;11424;48.860;9.624;2022-07-05T19:31:23;5.2;;;6.4;;
22515;SDS011;11424;48.860;9.624;2022-07-05T19:36:23;4.8;;;5.5;;
22515;SDS011;11424;48.860;9.624;2022-07-05T19:41:23;5.1;;;7;;
22515;SDS011;11424;48.860;9.624;2022-07-05T19:46:23;3.9;;;4.3;;
22515;SDS011;11424;48.860;9.624;2022-07-05T19:51:23;3.8;;;5.2;;
22515;SDS011;11424;48.860;9.624;2022-07-05T19:56:23;5.2;;;6;;
22515;SDS011;11424;48.860;9.624;2022-07-05T20:01:23;4.4;;;5.8;;
22515;SDS011;11424;48.860;9.624;2022-07-05T20:06:23;5.5;;;7.1;;
22515;SDS011;11424;48.860;9.624;2022-07-05T20:11:23;5.3;;;6.7;;
22515;SDS011;11424;48.860;9.624;2022-07-05T20:16:23;5.6;;;8.2;;
22515;SDS011;11424;48.860;9.624;2022-07-05T20:21:23;4.7;;;5.6;;
22515;SDS011;11424;48.860;9.624;2022-07-05T20:26:23;5.3;;;6.4;;
22515;SDS011;11424;48.860;9.624;2022-07-05T20:31:23;3.7;;;5.4;;
22515;SDS011;11424;48.860;9.624;2022-07-05T20:36:23;2.6;;;2.9;;
22515;SDS011;11424;48.860;9.624;2022-07-05T20:41:23;4.7;;;5.8;;
22515;SDS011;11424;48.860;9.624;2022-07-05T20:46:23;5.2;;;6.2;;
22515;SDS011;11424;48.860;9.624;2022-07-05T20:51:23;5.6;;;7;;
22515;SDS011;11424;48.860;9.624;2022-07-05T20:56:23;5.9;;;7.6;;
22515;SDS011;11424;48.860;9.624;2022-07-05T21:01:24;5.7;;;6.8;;
22515;SDS011;11424;48.860;9.624;2022-07-05T21:06:23;5.9;;;8.2;;
22515;SDS011;11424;48.860;9.624;2022-07-05T21:11:23;5.5;;;7.2;;
22515;SDS011;11424;48.860;9.624;2022-07-05T21:16:23;4.6;;;5.9;;
22515;SDS011;11424;48.860;9.624;2022-07-05T21:21:23;5.1;;;6.6;;
22515;SDS011;11424;48.860;9.624;2022-07-05T21:26:23;5.2;;;6.1;;
22515;SDS011;11424;48.860;9.624;2022-07-05T21:31:23;6.4;;;7.8;;
22515;SDS011;11424;48.860;9.624;2022-07-05T21:36:23;5.6;;;6.8;;
22515;SDS011;11424;48.860;9.624;2022-07-05T21:41:24;6.5;;;9.6;;
22515;SDS011;11424;48.860;9.624;2022-07-05T21:46:23;5.5;;;7.4;;
22515;SDS011;11424;48.860;9.624;2022-07-05T21:51:23;5.4;;;6.7;;
22515;SDS011;11424;48.860;9.624;2022-07-05T21:56:23;6;;;9.3;;
22515;SDS011;11424;48.860;9.624;2022-07-05T22:01:24;5;;;7.5;;
22515;SDS011;11424;48.860;9.624;2022-07-05T22:06:23;4.9;;;7.2;;
22515;SDS011;11424;48.860;9.624;2022-07-05T22:11:23;5.7;;;8;;
22515;SDS011;11424;48.860;9.624;2022-07-05T22:16:23;5.3;;;7.4;;
22515;SDS011;11424;48.860;9.624;2022-07-05T22:21:23;5.7;;;8.1;;
22515;SDS011;11424;48.860;9.624;2022-07-05T22:26:23;5.3;;;6.3;;
22515;SDS011;11424;48.860;9.624;2022-07-05T22:31:23;6.4;;;9.7;;
22515;SDS011;11424;48.860;9.624;2022-07-05T22:36:23;7.7;;;13.3;;
22515;SDS011;11424;48.860;9.624;2022-07-05T22:41:23;6.8;;;10.2;;
22515;SDS011;11424;48.860;9.624;2022-07-05T22:46:24;5.5;;;6.9;;
22515;SDS011;11424;48.860;9.624;2022-07-05T22:51:23;5.3;;;6.8;;
22515;SDS011;11424;48.860;9.624;2022-07-05T22:56:23;4.2;;;5.5;;
22515;SDS011;11424;48.860;9.624;2022-07-05T23:01:23;4.2;;;4.9;;
22515;SDS011;11424;48.860;9.624;2022-07-05T23:06:23;5.2;;;6.3;;
22515;SDS011;11424;48.860;9.624;2022-07-05T23:11:23;4.9;;;5.8;;
22515;SDS011;11424;48.860;9.624;2022-07-05T23:16:23;4.6;;;6.8;;
22515;SDS011;11424;48.860;9.624;2022-07-05T23:21:23;4.5;;;5.4;;
22515;SDS011;11424;48.860;9.624;2022-07-05T23:26:23;4.5;;;5.1;;
22515;SDS011;11424;48.860;9.624;2022-07-05T23:31:23;3.5;;;3.9;;
22515;SDS011;11424;48.860;9.624;2022-07-05T23:36:23;3.8;;;4.5;;
22515;SDS011;11424;48.860;9.624;2022-07-05T23:41:23;5;;;5.6;;
22515;SDS011;11424;48.860;9.624;2022-07-05T23:46:23;2.8;;;3.5;;
22515;SDS011;11424;48.860;9.624;2022-07-05T23:51:24;4.9;;;7.3;;
22515;SDS011;11424;48.860;9.624;2022-07-05T23:56:23;5.4;;;8.3;;
